Forside
METAR-TAF:

METAR-TAF

Lufthavne :

Victoria, Mahé, Seychellerne

Breddekreds: 04-40S, længdekreds: 055-31E, højde: 3 m

Aktuelle vejr

Denne rapport blev lavet for 22 minutter siden, kl. 11:00 UTC
Vind 10 kt fra sydøst
Temperatur 29°C
Fugtighed 74%
Tryk 1010 hPa
Sigt 10 km eller mere
Spredte skyer i en højde af 1900 ft

METAR: FSIA 171100Z 13010KT 9999 SCT019 29/24 Q1010 NOSIG

Tid: 15:22 (11:22 UTC)

Vejrudsigter

Denne rapport blev lavet for 6 timer og 12 minutter siden, kl. 05:10 UTC
Foreløbig gælder fra 17 på 06 UTC til 18 på 06 UTC
Vind 10 kt fra sydøst
Sigt 10 km eller mere
Spredte skyer i en højde af 2200 ft

TAF: FSIA 170510Z 1706/1806 14010KT 9999 SCT022

Vejrobservationer og prognoser fra mere end 4000 lufthavne (METAR og TAF).

De gule og røde prikker repræsenterer de meteorologiske stationer.

Flyt musen over at se navnet på stationen.

Så klik over at se vejr observationer og prognoser.

At skifte det kort: Klik på de grønne knapper med et sort kors for at zoome ind; på den grønne knap med en bindestreg for at zoome ud; eller på de grønne pile for tilstødende kort.


METAR-TAF: